sensor_id;sensor_type;location;lat;lon;timestamp;temperature;humidity
70851;DHT22;58475;49.662;9.636;2022-10-16T00:00:23;15.61;96.05
70851;DHT22;58475;49.662;9.636;2022-10-16T00:02:48;15.56;96.78
70851;DHT22;58475;49.662;9.636;2022-10-16T00:05:13;15.56;96.73
70851;DHT22;58475;49.662;9.636;2022-10-16T00:07:39;15.49;96.92
70851;DHT22;58475;49.662;9.636;2022-10-16T00:10:04;15.47;96.93
70851;DHT22;58475;49.662;9.636;2022-10-16T00:12:30;15.50;96.73
70851;DHT22;58475;49.662;9.636;2022-10-16T00:14:55;15.47;96.89
70851;DHT22;58475;49.662;9.636;2022-10-16T00:17:21;15.53;96.77
70851;DHT22;58475;49.662;9.636;2022-10-16T00:19:46;15.53;96.72
70851;DHT22;58475;49.662;9.636;2022-10-16T00:22:11;15.60;96.30
70851;DHT22;58475;49.662;9.636;2022-10-16T00:24:37;15.60;96.45
70851;DHT22;58475;49.662;9.636;2022-10-16T00:27:02;15.58;96.12
70851;DHT22;58475;49.662;9.636;2022-10-16T00:29:27;15.58;96.65
70851;DHT22;58475;49.662;9.636;2022-10-16T00:31:53;15.53;96.33
70851;DHT22;58475;49.662;9.636;2022-10-16T00:34:18;15.44;96.60
70851;DHT22;58475;49.662;9.636;2022-10-16T00:36:44;15.46;96.58
70851;DHT22;58475;49.662;9.636;2022-10-16T00:39:09;15.44;96.59
70851;DHT22;58475;49.662;9.636;2022-10-16T00:41:34;15.47;96.44
70851;DHT22;58475;49.662;9.636;2022-10-16T00:44:03;15.39;96.67
70851;DHT22;58475;49.662;9.636;2022-10-16T00:46:40;15.36;96.91
70851;DHT22;58475;49.662;9.636;2022-10-16T00:51:50;15.30;96.76
70851;DHT22;58475;49.662;9.636;2022-10-16T00:54:19;15.35;96.94
70851;DHT22;58475;49.662;9.636;2022-10-16T00:56:46;15.35;97.03
70851;DHT22;58475;49.662;9.636;2022-10-16T00:59:18;15.29;97.23
70851;DHT22;58475;49.662;9.636;2022-10-16T01:01:44;15.30;96.85
70851;DHT22;58475;49.662;9.636;2022-10-16T01:04:09;15.29;97.00
70851;DHT22;58475;49.662;9.636;2022-10-16T01:11:54;15.23;97.16
70851;DHT22;58475;49.662;9.636;2022-10-16T01:14:34;15.25;97.06
70851;DHT22;58475;49.662;9.636;2022-10-16T01:17:06;15.23;97.12
70851;DHT22;58475;49.662;9.636;2022-10-16T01:19:50;15.22;97.18
70851;DHT22;58475;49.662;9.636;2022-10-16T01:22:20;15.20;97.26
70851;DHT22;58475;49.662;9.636;2022-10-16T01:24:49;15.26;97.17
70851;DHT22;58475;49.662;9.636;2022-10-16T01:30:12;15.13;97.36
70851;DHT22;58475;49.662;9.636;2022-10-16T01:32:43;15.12;97.49
70851;DHT22;58475;49.662;9.636;2022-10-16T01:35:18;15.06;98.03
70851;DHT22;58475;49.662;9.636;2022-10-16T01:37:56;15.09;98.11
70851;DHT22;58475;49.662;9.636;2022-10-16T01:40:25;15.08;97.92
70851;DHT22;58475;49.662;9.636;2022-10-16T01:43:08;15.10;97.93
70851;DHT22;58475;49.662;9.636;2022-10-16T01:45:36;15.09;97.90
70851;DHT22;58475;49.662;9.636;2022-10-16T01:48:04;15.09;97.87
70851;DHT22;58475;49.662;9.636;2022-10-16T01:50:33;15.08;97.81
70851;DHT22;58475;49.662;9.636;2022-10-16T01:53:02;15.06;98.07
70851;DHT22;58475;49.662;9.636;2022-10-16T01:55:32;14.99;98.29
70851;DHT22;58475;49.662;9.636;2022-10-16T01:58:01;14.99;98.13
70851;DHT22;58475;49.662;9.636;2022-10-16T02:00:28;15.03;98.11
70851;DHT22;58475;49.662;9.636;2022-10-16T02:02:54;14.96;98.27
70851;DHT22;58475;49.662;9.636;2022-10-16T02:07:52;14.92;98.01
70851;DHT22;58475;49.662;9.636;2022-10-16T02:10:18;14.89;98.26
70851;DHT22;58475;49.662;9.636;2022-10-16T02:12:50;14.92;98.16
70851;DHT22;58475;49.662;9.636;2022-10-16T02:15:18;14.95;98.05
70851;DHT22;58475;49.662;9.636;2022-10-16T02:17:44;14.91;98.24
70851;DHT22;58475;49.662;9.636;2022-10-16T02:20:09;14.91;98.22
70851;DHT22;58475;49.662;9.636;2022-10-16T02:22:41;14.92;98.00
70851;DHT22;58475;49.662;9.636;2022-10-16T02:25:32;14.88;97.86
70851;DHT22;58475;49.662;9.636;2022-10-16T02:28:16;14.91;98.07
70851;DHT22;58475;49.662;9.636;2022-10-16T02:30:51;14.95;97.86
70851;DHT22;58475;49.662;9.636;2022-10-16T02:33:21;14.93;98.09
70851;DHT22;58475;49.662;9.636;2022-10-16T02:35:48;14.92;97.96
70851;DHT22;58475;49.662;9.636;2022-10-16T02:38:14;14.88;98.09
70851;DHT22;58475;49.662;9.636;2022-10-16T02:40:41;14.88;98.01
70851;DHT22;58475;49.662;9.636;2022-10-16T02:43:06;14.88;98.06
70851;DHT22;58475;49.662;9.636;2022-10-16T02:45:32;14.91;98.19
70851;DHT22;58475;49.662;9.636;2022-10-16T02:47:57;14.89;98.23
70851;DHT22;58475;49.662;9.636;2022-10-16T02:50:23;14.88;98.33
70851;DHT22;58475;49.662;9.636;2022-10-16T02:52:50;14.87;98.27
70851;DHT22;58475;49.662;9.636;2022-10-16T02:55:16;14.88;98.19
70851;DHT22;58475;49.662;9.636;2022-10-16T02:57:41;14.91;98.17
70851;DHT22;58475;49.662;9.636;2022-10-16T03:00:10;14.88;98.18
70851;DHT22;58475;49.662;9.636;2022-10-16T03:02:36;14.91;98.19
70851;DHT22;58475;49.662;9.636;2022-10-16T03:05:02;14.85;98.30
70851;DHT22;58475;49.662;9.636;2022-10-16T03:07:27;14.85;98.25
70851;DHT22;58475;49.662;9.636;2022-10-16T03:09:53;14.81;98.41
70851;DHT22;58475;49.662;9.636;2022-10-16T03:12:19;14.88;98.07
70851;DHT22;58475;49.662;9.636;2022-10-16T03:14:45;14.88;98.23
70851;DHT22;58475;49.662;9.636;2022-10-16T03:17:10;14.92;97.89
70851;DHT22;58475;49.662;9.636;2022-10-16T03:19:36;14.95;97.77
70851;DHT22;58475;49.662;9.636;2022-10-16T03:22:01;14.99;97.62
70851;DHT22;58475;49.662;9.636;2022-10-16T03:24:27;15.00;97.51
70851;DHT22;58475;49.662;9.636;2022-10-16T03:26:52;15.02;97.43
70851;DHT22;58475;49.662;9.636;2022-10-16T03:29:17;15.12;97.06
70851;DHT22;58475;49.662;9.636;2022-10-16T03:31:43;15.06;97.24
70851;DHT22;58475;49.662;9.636;2022-10-16T03:34:08;15.10;97.12
70851;DHT22;58475;49.662;9.636;2022-10-16T03:36:34;15.09;97.29
70851;DHT22;58475;49.662;9.636;2022-10-16T03:38:59;15.13;97.03
70851;DHT22;58475;49.662;9.636;2022-10-16T03:41:25;15.13;97.03
70851;DHT22;58475;49.662;9.636;2022-10-16T03:43:50;15.05;97.24
70851;DHT22;58475;49.662;9.636;2022-10-16T03:46:16;14.98;97.53
70851;DHT22;58475;49.662;9.636;2022-10-16T03:48:41;14.95;97.46
70851;DHT22;58475;49.662;9.636;2022-10-16T03:51:06;14.93;97.60
70851;DHT22;58475;49.662;9.636;2022-10-16T03:53:32;14.85;97.70
70851;DHT22;58475;49.662;9.636;2022-10-16T03:55:57;14.84;98.10
70851;DHT22;58475;49.662;9.636;2022-10-16T03:58:23;14.79;98.07
70851;DHT22;58475;49.662;9.636;2022-10-16T04:00:49;14.75;98.12
70851;DHT22;58475;49.662;9.636;2022-10-16T04:03:15;14.69;98.32
70851;DHT22;58475;49.662;9.636;2022-10-16T04:05:40;14.67;98.68
70851;DHT22;58475;49.662;9.636;2022-10-16T04:08:06;14.72;98.69
70851;DHT22;58475;49.662;9.636;2022-10-16T04:10:31;14.69;98.63
70851;DHT22;58475;49.662;9.636;2022-10-16T04:12:57;14.75;98.37
70851;DHT22;58475;49.662;9.636;2022-10-16T04:15:23;14.74;98.33
70851;DHT22;58475;49.662;9.636;2022-10-16T04:17:50;14.78;98.25
70851;DHT22;58475;49.662;9.636;2022-10-16T04:20:16;14.74;98.40
70851;DHT22;58475;49.662;9.636;2022-10-16T04:22:42;14.77;98.37
70851;DHT22;58475;49.662;9.636;2022-10-16T04:25:08;14.72;98.40
70851;DHT22;58475;49.662;9.636;2022-10-16T04:27:33;14.75;98.48
70851;DHT22;58475;49.662;9.636;2022-10-16T04:29:59;14.75;98.29
70851;DHT22;58475;49.662;9.636;2022-10-16T04:32:25;14.75;98.37
70851;DHT22;58475;49.662;9.636;2022-10-16T04:34:51;14.75;98.47
70851;DHT22;58475;49.662;9.636;2022-10-16T04:37:16;14.75;98.35
70851;DHT22;58475;49.662;9.636;2022-10-16T04:39:42;14.72;98.39
70851;DHT22;58475;49.662;9.636;2022-10-16T04:42:07;14.68;98.40
70851;DHT22;58475;49.662;9.636;2022-10-16T04:44:33;14.69;98.52
70851;DHT22;58475;49.662;9.636;2022-10-16T04:46:59;14.72;98.43
70851;DHT22;58475;49.662;9.636;2022-10-16T04:49:24;14.72;98.45
70851;DHT22;58475;49.662;9.636;2022-10-16T04:51:50;14.72;98.44
70851;DHT22;58475;49.662;9.636;2022-10-16T04:54:15;14.72;98.33
70851;DHT22;58475;49.662;9.636;2022-10-16T04:56:41;14.68;98.56
70851;DHT22;58475;49.662;9.636;2022-10-16T04:59:17;14.67;98.40
70851;DHT22;58475;49.662;9.636;2022-10-16T05:01:42;14.60;98.16
70851;DHT22;58475;49.662;9.636;2022-10-16T05:04:08;14.61;97.96
70851;DHT22;58475;49.662;9.636;2022-10-16T05:06:34;14.60;97.80
70851;DHT22;58475;49.662;9.636;2022-10-16T05:09:00;14.56;98.21
70851;DHT22;58475;49.662;9.636;2022-10-16T05:11:25;14.57;98.32
70851;DHT22;58475;49.662;9.636;2022-10-16T05:13:50;14.56;98.33
70851;DHT22;58475;49.662;9.636;2022-10-16T05:16:16;14.52;98.56
70851;DHT22;58475;49.662;9.636;2022-10-16T05:18:41;14.52;98.49
70851;DHT22;58475;49.662;9.636;2022-10-16T05:21:07;14.56;98.47
70851;DHT22;58475;49.662;9.636;2022-10-16T05:23:33;14.50;99.00
70851;DHT22;58475;49.662;9.636;2022-10-16T05:25:59;14.54;98.89
70851;DHT22;58475;49.662;9.636;2022-10-16T05:28:26;14.54;98.71
70851;DHT22;58475;49.662;9.636;2022-10-16T05:30:52;14.51;98.58
70851;DHT22;58475;49.662;9.636;2022-10-16T05:33:23;14.52;98.63
70851;DHT22;58475;49.662;9.636;2022-10-16T05:35:49;14.56;98.67
70851;DHT22;58475;49.662;9.636;2022-10-16T05:38:16;14.54;98.48
70851;DHT22;58475;49.662;9.636;2022-10-16T05:40:41;14.50;98.59
70851;DHT22;58475;49.662;9.636;2022-10-16T05:43:07;14.51;98.53
70851;DHT22;58475;49.662;9.636;2022-10-16T05:45:32;14.50;98.60
70851;DHT22;58475;49.662;9.636;2022-10-16T05:47:59;14.50;98.28
70851;DHT22;58475;49.662;9.636;2022-10-16T05:50:24;14.41;98.62
70851;DHT22;58475;49.662;9.636;2022-10-16T05:52:50;14.42;98.55
70851;DHT22;58475;49.662;9.636;2022-10-16T05:55:15;14.41;98.86
70851;DHT22;58475;49.662;9.636;2022-10-16T05:57:40;14.47;98.58
70851;DHT22;58475;49.662;9.636;2022-10-16T06:00:06;14.44;98.51
70851;DHT22;58475;49.662;9.636;2022-10-16T06:02:38;14.48;98.67
70851;DHT22;58475;49.662;9.636;2022-10-16T06:05:04;14.44;98.66
70851;DHT22;58475;49.662;9.636;2022-10-16T06:07:36;14.45;98.90
70851;DHT22;58475;49.662;9.636;2022-10-16T06:10:03;14.41;98.71
70851;DHT22;58475;49.662;9.636;2022-10-16T06:12:29;14.41;98.55
70851;DHT22;58475;49.662;9.636;2022-10-16T06:14:54;14.45;98.12
70851;DHT22;58475;49.662;9.636;2022-10-16T06:17:19;14.45;97.80
70851;DHT22;58475;49.662;9.636;2022-10-16T06:19:45;14.41;97.86
70851;DHT22;58475;49.662;9.636;2022-10-16T06:22:10;14.34;98.03
70851;DHT22;58475;49.662;9.636;2022-10-16T06:24:36;14.34;98.29
70851;DHT22;58475;49.662;9.636;2022-10-16T06:27:03;14.27;98.69
70851;DHT22;58475;49.662;9.636;2022-10-16T06:29:28;14.29;99.07
70851;DHT22;58475;49.662;9.636;2022-10-16T06:31:54;14.36;98.95
70851;DHT22;58475;49.662;9.636;2022-10-16T06:34:19;14.34;98.90
70851;DHT22;58475;49.662;9.636;2022-10-16T06:36:44;14.36;98.86
70851;DHT22;58475;49.662;9.636;2022-10-16T06:39:10;14.36;98.99
70851;DHT22;58475;49.662;9.636;2022-10-16T06:41:35;14.44;98.83
70851;DHT22;58475;49.662;9.636;2022-10-16T06:44:13;14.51;98.87
70851;DHT22;58475;49.662;9.636;2022-10-16T06:46:39;14.60;98.88
70851;DHT22;58475;49.662;9.636;2022-10-16T06:49:04;14.63;98.83
70851;DHT22;58475;49.662;9.636;2022-10-16T06:51:30;14.68;98.41
70851;DHT22;58475;49.662;9.636;2022-10-16T06:54:00;14.65;98.42
70851;DHT22;58475;49.662;9.636;2022-10-16T06:56:27;14.63;98.16
70851;DHT22;58475;49.662;9.636;2022-10-16T06:58:53;14.69;97.99
70851;DHT22;58475;49.662;9.636;2022-10-16T07:01:21;14.79;97.83
70851;DHT22;58475;49.662;9.636;2022-10-16T07:03:47;14.74;98.02
70851;DHT22;58475;49.662;9.636;2022-10-16T07:06:17;14.85;97.83
70851;DHT22;58475;49.662;9.636;2022-10-16T07:08:45;14.87;97.84
70851;DHT22;58475;49.662;9.636;2022-10-16T07:11:14;14.91;98.04
70851;DHT22;58475;49.662;9.636;2022-10-16T07:13:41;14.89;97.96
70851;DHT22;58475;49.662;9.636;2022-10-16T07:16:12;14.88;98.19
70851;DHT22;58475;49.662;9.636;2022-10-16T07:18:38;14.92;98.08
70851;DHT22;58475;49.662;9.636;2022-10-16T07:21:16;14.93;97.84
70851;DHT22;58475;49.662;9.636;2022-10-16T07:23:42;14.92;98.27
70851;DHT22;58475;49.662;9.636;2022-10-16T07:26:08;14.92;98.01
70851;DHT22;58475;49.662;9.636;2022-10-16T07:28:35;14.95;98.26
70851;DHT22;58475;49.662;9.636;2022-10-16T07:31:05;15.03;97.90
70851;DHT22;58475;49.662;9.636;2022-10-16T07:33:33;15.05;97.85
70851;DHT22;58475;49.662;9.636;2022-10-16T07:35:59;15.12;97.86
70851;DHT22;58475;49.662;9.636;2022-10-16T07:38:24;15.08;97.70
70851;DHT22;58475;49.662;9.636;2022-10-16T07:41:00;15.10;97.79
70851;DHT22;58475;49.662;9.636;2022-10-16T07:43:27;15.10;97.67
70851;DHT22;58475;49.662;9.636;2022-10-16T07:45:53;15.19;97.82
70851;DHT22;58475;49.662;9.636;2022-10-16T07:48:20;15.28;97.68
70851;DHT22;58475;49.662;9.636;2022-10-16T07:50:46;15.39;97.54
70851;DHT22;58475;49.662;9.636;2022-10-16T07:53:12;15.44;97.51
70851;DHT22;58475;49.662;9.636;2022-10-16T07:55:38;15.61;97.62
70851;DHT22;58475;49.662;9.636;2022-10-16T07:58:04;15.83;97.17
70851;DHT22;58475;49.662;9.636;2022-10-16T08:00:30;15.98;96.92
70851;DHT22;58475;49.662;9.636;2022-10-16T08:02:59;16.12;96.92
70851;DHT22;58475;49.662;9.636;2022-10-16T08:05:30;16.14;96.52
70851;DHT22;58475;49.662;9.636;2022-10-16T08:07:56;16.18;96.66
70851;DHT22;58475;49.662;9.636;2022-10-16T08:10:24;16.09;96.28
70851;DHT22;58475;49.662;9.636;2022-10-16T08:12:50;16.08;96.36
70851;DHT22;58475;49.662;9.636;2022-10-16T08:15:16;16.14;96.45
70851;DHT22;58475;49.662;9.636;2022-10-16T08:17:42;16.17;96.47
70851;DHT22;58475;49.662;9.636;2022-10-16T08:20:08;16.22;96.44
70851;DHT22;58475;49.662;9.636;2022-10-16T08:22:33;16.28;96.09
70851;DHT22;58475;49.662;9.636;2022-10-16T08:24:59;16.38;95.81
70851;DHT22;58475;49.662;9.636;2022-10-16T08:27:24;16.38;95.76
70851;DHT22;58475;49.662;9.636;2022-10-16T08:29:50;16.45;95.71
70851;DHT22;58475;49.662;9.636;2022-10-16T08:32:15;16.42;95.79
70851;DHT22;58475;49.662;9.636;2022-10-16T08:34:41;16.46;96.01
70851;DHT22;58475;49.662;9.636;2022-10-16T08:37:06;16.53;95.79
70851;DHT22;58475;49.662;9.636;2022-10-16T08:39:33;16.62;95.73
70851;DHT22;58475;49.662;9.636;2022-10-16T08:42:14;16.77;95.68
70851;DHT22;58475;49.662;9.636;2022-10-16T08:47:31;17.02;94.75
70851;DHT22;58475;49.662;9.636;2022-10-16T08:50:08;17.21;94.24
70851;DHT22;58475;49.662;9.636;2022-10-16T08:52:39;17.44;93.84
70851;DHT22;58475;49.662;9.636;2022-10-16T08:55:05;17.51;93.22
70851;DHT22;58475;49.662;9.636;2022-10-16T08:57:31;17.45;92.95
70851;DHT22;58475;49.662;9.636;2022-10-16T09:00:00;17.14;92.89
70851;DHT22;58475;49.662;9.636;2022-10-16T09:02:37;17.16;92.82
70851;DHT22;58475;49.662;9.636;2022-10-16T09:13:09;17.10;93.89
70851;DHT22;58475;49.662;9.636;2022-10-16T09:15:53;17.16;94.12
70851;DHT22;58475;49.662;9.636;2022-10-16T09:18:27;17.18;94.08
70851;DHT22;58475;49.662;9.636;2022-10-16T09:23:37;17.23;94.02
70851;DHT22;58475;49.662;9.636;2022-10-16T09:26:05;17.23;93.67
70851;DHT22;58475;49.662;9.636;2022-10-16T09:28:31;17.18;94.19
70851;DHT22;58475;49.662;9.636;2022-10-16T09:30:56;17.07;94.30
70851;DHT22;58475;49.662;9.636;2022-10-16T09:33:27;17.04;94.83
70851;DHT22;58475;49.662;9.636;2022-10-16T09:35:56;17.02;94.47
70851;DHT22;58475;49.662;9.636;2022-10-16T09:38:31;17.06;95.44
70851;DHT22;58475;49.662;9.636;2022-10-16T09:40:58;17.14;94.96
70851;DHT22;58475;49.662;9.636;2022-10-16T09:43:27;17.23;95.19
70851;DHT22;58475;49.662;9.636;2022-10-16T09:46:07;17.23;95.38
70851;DHT22;58475;49.662;9.636;2022-10-16T09:48:37;17.23;95.47
70851;DHT22;58475;49.662;9.636;2022-10-16T09:51:05;17.30;95.25
70851;DHT22;58475;49.662;9.636;2022-10-16T09:53:44;17.28;95.19
70851;DHT22;58475;49.662;9.636;2022-10-16T09:56:12;17.32;95.36
70851;DHT22;58475;49.662;9.636;2022-10-16T09:58:53;17.39;94.96
70851;DHT22;58475;49.662;9.636;2022-10-16T10:01:19;17.49;95.28
70851;DHT22;58475;49.662;9.636;2022-10-16T10:03:46;17.74;94.74
70851;DHT22;58475;49.662;9.636;2022-10-16T10:09:36;17.95;93.16
70851;DHT22;58475;49.662;9.636;2022-10-16T10:12:06;17.61;93.96
70851;DHT22;58475;49.662;9.636;2022-10-16T10:14:50;17.32;95.54
70851;DHT22;58475;49.662;9.636;2022-10-16T10:17:25;17.35;95.32
70851;DHT22;58475;49.662;9.636;2022-10-16T10:19:53;17.32;95.54
70851;DHT22;58475;49.662;9.636;2022-10-16T10:22:52;17.41;95.88
70851;DHT22;58475;49.662;9.636;2022-10-16T10:31:03;17.93;95.47
70851;DHT22;58475;49.662;9.636;2022-10-16T10:33:52;18.09;94.55
70851;DHT22;58475;49.662;9.636;2022-10-16T10:39:25;18.98;91.21
70851;DHT22;58475;49.662;9.636;2022-10-16T10:48:03;19.88;89.52
70851;DHT22;58475;49.662;9.636;2022-10-16T11:01:48;21.72;85.96
70851;DHT22;58475;49.662;9.636;2022-10-16T11:07:37;21.52;83.56
70851;DHT22;58475;49.662;9.636;2022-10-16T11:10:13;21.61;84.11
70851;DHT22;58475;49.662;9.636;2022-10-16T11:12:45;21.26;83.22
70851;DHT22;58475;49.662;9.636;2022-10-16T11:15:31;21.83;83.39
70851;DHT22;58475;49.662;9.636;2022-10-16T11:18:06;22.28;83.82
70851;DHT22;58475;49.662;9.636;2022-10-16T11:20:34;22.37;81.27
70851;DHT22;58475;49.662;9.636;2022-10-16T11:23:36;22.83;79.57
70851;DHT22;58475;49.662;9.636;2022-10-16T11:26:11;22.54;81.21
70851;DHT22;58475;49.662;9.636;2022-10-16T11:28:50;23.01;79.48
70851;DHT22;58475;49.662;9.636;2022-10-16T11:36:22;22.92;79.15
70851;DHT22;58475;49.662;9.636;2022-10-16T11:39:03;23.19;78.39
70851;DHT22;58475;49.662;9.636;2022-10-16T11:41:37;23.19;77.68
70851;DHT22;58475;49.662;9.636;2022-10-16T11:47:30;23.30;76.49
70851;DHT22;58475;49.662;9.636;2022-10-16T11:50:39;23.60;76.82
70851;DHT22;58475;49.662;9.636;2022-10-16T11:53:22;23.62;76.72
70851;DHT22;58475;49.662;9.636;2022-10-16T11:55:49;23.50;77.09
70851;DHT22;58475;49.662;9.636;2022-10-16T11:58:31;23.71;76.62
70851;DHT22;58475;49.662;9.636;2022-10-16T12:03:33;24.18;77.57
70851;DHT22;58475;49.662;9.636;2022-10-16T12:08:49;24.10;75.13
70851;DHT22;58475;49.662;9.636;2022-10-16T12:11:30;24.27;74.83
70851;DHT22;58475;49.662;9.636;2022-10-16T12:14:06;24.28;77.11
70851;DHT22;58475;49.662;9.636;2022-10-16T12:16:32;24.24;75.84
70851;DHT22;58475;49.662;9.636;2022-10-16T12:19:15;24.37;72.01
70851;DHT22;58475;49.662;9.636;2022-10-16T12:21:42;24.59;72.90
70851;DHT22;58475;49.662;9.636;2022-10-16T12:24:34;24.65;70.80
70851;DHT22;58475;49.662;9.636;2022-10-16T12:27:00;24.80;69.44
70851;DHT22;58475;49.662;9.636;2022-10-16T12:29:33;23.92;67.21
70851;DHT22;58475;49.662;9.636;2022-10-16T12:32:00;24.35;68.95
70851;DHT22;58475;49.662;9.636;2022-10-16T12:34:43;23.93;66.55
70851;DHT22;58475;49.662;9.636;2022-10-16T12:39:45;23.52;66.90
70851;DHT22;58475;49.662;9.636;2022-10-16T12:44:52;23.58;68.70
70851;DHT22;58475;49.662;9.636;2022-10-16T12:49:55;23.73;65.82
70851;DHT22;58475;49.662;9.636;2022-10-16T12:52:35;23.60;66.78
70851;DHT22;58475;49.662;9.636;2022-10-16T12:55:03;23.74;67.26
70851;DHT22;58475;49.662;9.636;2022-10-16T12:57:48;23.55;66.26
70851;DHT22;58475;49.662;9.636;2022-10-16T13:22:35;23.15;67.50
70851;DHT22;58475;49.662;9.636;2022-10-16T13:28:06;22.53;69.54
70851;DHT22;58475;49.662;9.636;2022-10-16T13:30:43;22.41;71.58
70851;DHT22;58475;49.662;9.636;2022-10-16T13:33:19;22.20;72.56
70851;DHT22;58475;49.662;9.636;2022-10-16T13:36:04;21.95;71.45
70851;DHT22;58475;49.662;9.636;2022-10-16T13:38:32;21.93;71.61
70851;DHT22;58475;49.662;9.636;2022-10-16T13:41:12;21.86;72.30
70851;DHT22;58475;49.662;9.636;2022-10-16T13:46:12;21.79;72.98
70851;DHT22;58475;49.662;9.636;2022-10-16T13:48:38;21.86;73.27
70851;DHT22;58475;49.662;9.636;2022-10-16T13:51:11;21.79;73.43
70851;DHT22;58475;49.662;9.636;2022-10-16T13:53:37;21.65;73.30
70851;DHT22;58475;49.662;9.636;2022-10-16T13:56:10;21.75;74.23
70851;DHT22;58475;49.662;9.636;2022-10-16T13:58:35;21.74;73.44
70851;DHT22;58475;49.662;9.636;2022-10-16T14:01:12;21.78;74.29
70851;DHT22;58475;49.662;9.636;2022-10-16T14:03:41;21.95;74.64
70851;DHT22;58475;49.662;9.636;2022-10-16T14:06:12;21.85;73.77
70851;DHT22;58475;49.662;9.636;2022-10-16T14:08:48;21.79;74.54
70851;DHT22;58475;49.662;9.636;2022-10-16T14:11:21;21.96;73.06
70851;DHT22;58475;49.662;9.636;2022-10-16T14:13:49;21.82;77.31
70851;DHT22;58475;49.662;9.636;2022-10-16T14:16:27;21.83;72.90
70851;DHT22;58475;49.662;9.636;2022-10-16T14:19:03;21.77;74.31
70851;DHT22;58475;49.662;9.636;2022-10-16T14:21:33;21.75;72.56
70851;DHT22;58475;49.662;9.636;2022-10-16T14:23:59;21.78;74.67
70851;DHT22;58475;49.662;9.636;2022-10-16T14:26:41;21.33;80.04
70851;DHT22;58475;49.662;9.636;2022-10-16T14:29:15;21.40;81.72
70851;DHT22;58475;49.662;9.636;2022-10-16T14:31:42;21.40;82.19
70851;DHT22;58475;49.662;9.636;2022-10-16T14:34:33;21.31;80.37
70851;DHT22;58475;49.662;9.636;2022-10-16T14:39:50;20.72;83.30
70851;DHT22;58475;49.662;9.636;2022-10-16T14:42:20;20.76;83.65
70851;DHT22;58475;49.662;9.636;2022-10-16T14:44:48;20.65;83.64
70851;DHT22;58475;49.662;9.636;2022-10-16T14:47:19;20.43;83.72
70851;DHT22;58475;49.662;9.636;2022-10-16T14:49:50;20.41;85.48
70851;DHT22;58475;49.662;9.636;2022-10-16T14:52:16;20.35;84.23
70851;DHT22;58475;49.662;9.636;2022-10-16T14:54:41;20.28;85.16
70851;DHT22;58475;49.662;9.636;2022-10-16T14:57:17;20.25;86.96
70851;DHT22;58475;49.662;9.636;2022-10-16T14:59:43;20.24;87.39
70851;DHT22;58475;49.662;9.636;2022-10-16T15:02:29;20.04;88.52
70851;DHT22;58475;49.662;9.636;2022-10-16T15:04:55;20.08;88.99
70851;DHT22;58475;49.662;9.636;2022-10-16T15:07:21;20.10;87.62
70851;DHT22;58475;49.662;9.636;2022-10-16T15:09:47;19.90;88.72
70851;DHT22;58475;49.662;9.636;2022-10-16T15:12:12;19.84;88.49
70851;DHT22;58475;49.662;9.636;2022-10-16T15:14:38;19.97;87.48
70851;DHT22;58475;49.662;9.636;2022-10-16T15:17:03;19.91;88.40
70851;DHT22;58475;49.662;9.636;2022-10-16T15:19:29;19.85;88.24
70851;DHT22;58475;49.662;9.636;2022-10-16T15:21:54;19.74;89.62
70851;DHT22;58475;49.662;9.636;2022-10-16T15:24:20;19.70;88.83
70851;DHT22;58475;49.662;9.636;2022-10-16T15:26:45;19.57;89.63
70851;DHT22;58475;49.662;9.636;2022-10-16T15:29:14;19.49;89.79
70851;DHT22;58475;49.662;9.636;2022-10-16T15:31:40;19.37;90.66
70851;DHT22;58475;49.662;9.636;2022-10-16T15:34:08;19.26;90.43
70851;DHT22;58475;49.662;9.636;2022-10-16T15:36:36;19.11;90.79
70851;DHT22;58475;49.662;9.636;2022-10-16T15:39:03;18.94;90.96
70851;DHT22;58475;49.662;9.636;2022-10-16T15:41:29;19.02;90.68
70851;DHT22;58475;49.662;9.636;2022-10-16T15:43:54;19.08;90.68
70851;DHT22;58475;49.662;9.636;2022-10-16T15:46:21;18.99;90.84
70851;DHT22;58475;49.662;9.636;2022-10-16T15:48:48;19.04;90.32
70851;DHT22;58475;49.662;9.636;2022-10-16T15:51:14;19.06;90.58
70851;DHT22;58475;49.662;9.636;2022-10-16T15:53:39;19.08;89.59
70851;DHT22;58475;49.662;9.636;2022-10-16T15:56:06;19.05;90.24
70851;DHT22;58475;49.662;9.636;2022-10-16T15:58:33;19.04;90.53
70851;DHT22;58475;49.662;9.636;2022-10-16T16:00:59;19.01;89.96
70851;DHT22;58475;49.662;9.636;2022-10-16T16:03:29;18.76;90.80
70851;DHT22;58475;49.662;9.636;2022-10-16T16:05:54;18.88;90.53
70851;DHT22;58475;49.662;9.636;2022-10-16T16:08:20;18.87;91.08
70851;DHT22;58475;49.662;9.636;2022-10-16T16:10:56;18.79;91.09
70851;DHT22;58475;49.662;9.636;2022-10-16T16:13:21;18.87;91.45
70851;DHT22;58475;49.662;9.636;2022-10-16T16:15:47;18.69;91.88
70851;DHT22;58475;49.662;9.636;2022-10-16T16:18:12;18.64;91.93
70851;DHT22;58475;49.662;9.636;2022-10-16T16:20:38;18.53;92.25
70851;DHT22;58475;49.662;9.636;2022-10-16T16:23:03;18.53;92.47
70851;DHT22;58475;49.662;9.636;2022-10-16T16:25:28;18.54;91.55
70851;DHT22;58475;49.662;9.636;2022-10-16T16:27:54;18.50;90.16
70851;DHT22;58475;49.662;9.636;2022-10-16T16:30:19;18.50;91.20
70851;DHT22;58475;49.662;9.636;2022-10-16T16:32:45;18.51;90.91
70851;DHT22;58475;49.662;9.636;2022-10-16T16:35:11;18.46;90.87
70851;DHT22;58475;49.662;9.636;2022-10-16T16:37:36;18.22;91.83
70851;DHT22;58475;49.662;9.636;2022-10-16T16:40:02;18.16;92.23
70851;DHT22;58475;49.662;9.636;2022-10-16T16:42:27;17.97;92.67
70851;DHT22;58475;49.662;9.636;2022-10-16T16:44:53;17.56;94.54
70851;DHT22;58475;49.662;9.636;2022-10-16T16:47:19;17.55;94.55
70851;DHT22;58475;49.662;9.636;2022-10-16T16:49:44;17.58;94.14
70851;DHT22;58475;49.662;9.636;2022-10-16T16:52:12;17.56;93.90
70851;DHT22;58475;49.662;9.636;2022-10-16T16:54:37;17.47;93.64
70851;DHT22;58475;49.662;9.636;2022-10-16T16:57:02;17.24;94.51
70851;DHT22;58475;49.662;9.636;2022-10-16T16:59:29;17.28;94.44
70851;DHT22;58475;49.662;9.636;2022-10-16T17:02:00;17.27;94.18
70851;DHT22;58475;49.662;9.636;2022-10-16T17:04:26;17.27;93.82
70851;DHT22;58475;49.662;9.636;2022-10-16T17:06:55;17.13;93.84
70851;DHT22;58475;49.662;9.636;2022-10-16T17:09:21;17.06;93.85
70851;DHT22;58475;49.662;9.636;2022-10-16T17:11:46;16.90;94.71
70851;DHT22;58475;49.662;9.636;2022-10-16T17:14:14;16.84;94.99
70851;DHT22;58475;49.662;9.636;2022-10-16T17:16:40;16.86;94.29
70851;DHT22;58475;49.662;9.636;2022-10-16T17:19:12;16.83;94.31
70851;DHT22;58475;49.662;9.636;2022-10-16T17:21:37;16.75;94.33
70851;DHT22;58475;49.662;9.636;2022-10-16T17:24:03;16.70;94.53
70851;DHT22;58475;49.662;9.636;2022-10-16T17:26:29;16.66;94.56
70851;DHT22;58475;49.662;9.636;2022-10-16T17:28:58;16.57;94.39
70851;DHT22;58475;49.662;9.636;2022-10-16T17:31:26;16.53;94.37